Flag for Germany

Past Weather in 49°53'29"N, 10°53'29"E, Germany — Yesterday and Last 2 Weeks

Currently: 66 °F. Clear. (Weather station: Nuernberg, Germany). See more current weather

Past Weather in 49°53'29"N, 10°53'29"E — Graph

°F

49°53'29"N, 10°53'29"E Temperature Yesterday

Maximum temperature yesterday: 79 °F (at 3:20 pm)
Minimum temperature yesterday: 61 °F (at 4:50 am)
Average temperature yesterday: 69 °F

High & Low Weather Summary for the Past Weeks

 TemperatureHumidityPressure
High90 °F (Jul 15, 3:50 pm)100% (Jul 11, 1:20 am)30.21 "Hg (Jul 11, 1:20 am)
Low54 °F (Jul 18, 4:20 am)29% (Jul 15, 4:50 pm)29.77 "Hg (Jul 21, 1:50 pm)
Average71 °F69%30.00 "Hg
* Reported Jul 9 8:20 pm — Jul 24 8:50 pm, 49°53'29"N, 10°53'29"E. Weather by CustomWeather, © 2024

Note: Actual official high and low records may vary slightly from our data, if they occured in-between our weather recording intervals... More about our weather records

49°53'29"N, 10°53'29"E Weather History for the Previous 24 Hours

Scroll right to see more
 ConditionsComfort  
Time TempWeatherWind HumidityBarometerVisibility
8:50 pm
Wed, Jul 24
68 °FSunny.7 mph56%30.07 "Hg10 mi
8:20 pm70 °FSunny.8 mph53%30.07 "Hg10 mi
7:50 pm72 °FPassing clouds.10 mph50%30.07 "HgN/A
7:20 pm72 °FPassing clouds.10 mph50%30.07 "HgN/A
6:50 pm73 °FPassing clouds.10 mph44%30.07 "HgN/A
6:20 pm73 °FPassing clouds.12 mph44%30.07 "HgN/A
5:50 pm73 °FPassing clouds.12 mph44%30.07 "HgN/A
5:20 pm75 °FScattered clouds.10 mph47%30.07 "HgN/A
4:50 pm73 °FScattered clouds.13 mph50%30.07 "HgN/A
4:20 pm73 °FScattered clouds.14 mph50%30.09 "HgN/A
3:50 pm72 °FScattered clouds.14 mph57%30.09 "HgN/A
3:20 pm73 °FPassing clouds.15 mph53%30.09 "HgN/A
2:50 pm70 °FPassing clouds.12 mph64%30.09 "HgN/A
2:20 pm72 °FPassing clouds.8 mph57%30.09 "HgN/A
1:50 pm70 °FBroken clouds.9 mph64%30.09 "HgN/A
1:20 pm70 °FBroken clouds.6 mph64%30.09 "HgN/A
12:50 pm70 °FPassing clouds.7 mph64%30.12 "HgN/A
12:20 pm68 °FPassing clouds.6 mph69%30.12 "HgN/A
11:50 am66 °FSprinkles. Scattered clouds.8 mph73%30.12 "HgN/A
11:20 am64 °FPartly sunny.8 mph83%30.12 "HgN/A
10:20 am64 °FPartly sunny.7 mph78%30.12 "HgN/A
9:50 am64 °FPartly sunny.8 mph78%30.12 "HgN/A
9:20 am64 °FBroken clouds.8 mph78%30.12 "HgN/A
8:50 am63 °FMostly cloudy.10 mph83%30.12 "HgN/A
8:20 am63 °FPartly sunny.10 mph83%30.12 "HgN/A
7:50 am63 °FOvercast.7 mph88%30.09 "HgN/A
7:20 am63 °FOvercast.7 mph88%30.09 "HgN/A
6:50 am61 °FPartly sunny.3 mph94%30.09 "HgN/A
6:20 am61 °FPartly sunny.3 mph94%30.09 "HgN/A
5:50 am61 °FScattered clouds.5 mph94%30.09 "HgN/A
5:20 am61 °FPassing clouds.6 mph94%30.09 "HgN/A
4:50 am63 °FPassing clouds.6 mph88%30.07 "HgN/A
4:20 am63 °FPassing clouds.5 mph94%30.07 "HgN/A
3:50 am63 °FPassing clouds.5 mph94%30.07 "HgN/A
3:20 am63 °FPartly cloudy.5 mph94%30.07 "HgN/A
2:50 am64 °FMostly cloudy.5 mph94%30.07 "HgN/A
2:20 am64 °FPassing clouds.6 mph94%30.07 "HgN/A
1:50 am63 °FPassing clouds.5 mph94%30.07 "HgN/A
1:20 am64 °FPassing clouds.5 mph94%30.07 "HgN/A
12:50 am64 °FPassing clouds.6 mph94%30.07 "HgN/A
12:20 am64 °FPassing clouds.7 mph94%30.07 "HgN/A
11:50 pm
Tue, Jul 23
64 °FPassing clouds.3 mph94%30.07 "HgN/A
11:20 pm66 °FOvercast.3 mph88%30.07 "HgN/A
10:20 pm66 °FScattered showers. Mostly cloudy.3 mph88%30.07 "HgN/A
Weather by CustomWeather, © 2024

See weather overview